Time;durP1;ratioP1;P1;durP2;ratioP2;P2;SDS_P1;SDS_P2;PMS_P1;PMS_P2;Temp;Humidity;BMP_temperature;BMP_pressure;BME280_temperature;BME280_humidity;BME280_pressure;Samples;Min_cycle;Max_cycle;Signal;HPM_P1;HPM_P2
2021/05/19 00:01:55;;;;;;;1.50;1.10;;;22.50;46.10;;;;;;5027024;28;20399;-86
2021/05/19 00:05:05;;;;;;;1.30;1.00;;;22.40;46.00;;;;;;5011384;28;20410;-86
2021/05/19 00:08:02;;;;;;;1.40;1.23;;;22.40;46.10;;;;;;5010924;28;20478;-85
2021/05/19 00:10:56;;;;;;;1.73;1.10;;;22.40;46.00;;;;;;5044504;28;20418;-85
2021/05/19 00:14:08;;;;;;;1.30;1.10;;;22.40;46.00;;;;;;5047240;28;20434;-85
2021/05/19 00:17:20;;;;;;;1.53;1.43;;;22.40;46.00;;;;;;5049858;28;20398;-85
2021/05/19 00:26:45;;;;;;;1.37;1.03;;;22.40;45.80;;;;;;5048759;28;20402;-86
2021/05/19 00:29:24;;;;;;;1.20;1.07;;;22.40;45.80;;;;;;5051254;28;20407;-82
2021/05/19 00:32:12;;;;;;;1.53;1.17;;;22.40;46.10;;;;;;5052348;28;20425;-83
2021/05/19 00:34:38;;;;;;;1.70;1.30;;;22.40;45.80;;;;;;5051777;28;20504;-83
2021/05/19 00:37:25;;;;;;;;;;;;;;;;;;;;;
2021/05/19 00:40:11;;;;;;;1.70;1.10;;;22.40;45.60;;;;;;5053489;28;20469;-82
2021/05/19 00:42:58;;;;;;;;;;;;;;;;;;;;;
2021/05/19 00:46:03;;;;;;;2.20;1.13;;;22.40;45.60;;;;;;5031217;28;20434;-84
2021/05/19 00:49:16;;;;;;;2.03;1.00;;;22.40;45.60;;;;;;5031454;28;20418;-85
2021/05/19 00:51:58;;;;;;;1.30;0.97;;;22.30;45.50;;;;;;4992668;28;20425;-85
2021/05/19 00:54:38;;;;;;;1.10;1.00;;;22.40;45.50;;;;;;4975626;28;20425;-83
2021/05/19 00:57:11;;;;;;;1.40;0.90;;;22.30;45.50;;;;;;4990773;28;20579;-83
2021/05/19 00:59:41;;;;;;;1.80;0.93;;;22.30;45.50;;;;;;4975123;28;20460;-83
2021/05/19 01:02:27;;;;;;;1.40;1.00;;;22.40;45.40;;;;;;4975283;28;20416;-83
2021/05/19 01:05:24;;;;;;;2.40;1.10;;;22.40;45.40;;;;;;4958216;28;20430;-83
2021/05/19 01:11:21;;;;;;;2.43;1.30;;;22.30;45.30;;;;;;4987046;28;20524;-83
2021/05/19 01:14:10;;;;;;;3.03;1.27;;;22.30;45.30;;;;;;4975419;28;20417;-83
2021/05/19 01:16:49;;;;;;;2.27;1.20;;;22.30;45.30;;;;;;4991432;28;20932;-83
2021/05/19 01:19:38;;;;;;;1.40;0.90;;;22.30;45.20;;;;;;4992312;28;20448;-83
2021/05/19 01:22:32;;;;;;;1.30;1.00;;;22.30;45.20;;;;;;4980842;28;20428;-83
2021/05/19 01:25:16;;;;;;;1.33;1.13;;;22.30;45.10;;;;;;5010195;28;20500;-82
2021/05/19 01:28:01;;;;;;;2.80;1.30;;;22.30;45.10;;;;;;5018186;28;20490;-83
2021/05/19 01:30:34;;;;;;;2.03;1.10;;;22.20;45.10;;;;;;5050092;28;20422;-83
2021/05/19 01:33:06;;;;;;;1.53;1.10;;;22.30;45.10;;;;;;5051085;28;20414;-83
2021/05/19 01:42:39;;;;;;;1.70;1.03;;;22.30;45.10;;;;;;5051610;28;20382;-83
2021/05/19 01:45:23;;;;;;;1.60;1.37;;;22.20;45.30;;;;;;5050932;28;20433;-85
2021/05/19 01:47:52;;;;;;;1.80;1.30;;;22.10;45.00;;;;;;5051522;28;20497;-84
2021/05/19 01:50:36;;;;;;;1.10;1.00;;;22.20;45.10;;;;;;5051708;28;21003;-85
2021/05/19 01:53:14;;;;;;;2.07;1.23;;;22.20;45.00;;;;;;5053090;28;20509;-84
2021/05/19 01:55:48;;;;;;;2.33;1.70;;;22.20;44.90;;;;;;5051409;28;20490;-85
2021/05/19 01:58:20;;;;;;;2.03;1.37;;;22.20;44.90;;;;;;5052817;28;20398;-84
2021/05/19 02:00:56;;;;;;;1.23;1.00;;;22.20;44.80;;;;;;5052775;28;20401;-85
2021/05/19 02:03:39;;;;;;;1.40;1.30;;;22.20;44.80;;;;;;5051267;28;20486;-84
2021/05/19 02:06:05;;;;;;;1.97;1.27;;;22.20;44.80;;;;;;5052472;28;20418;-85
2021/05/19 02:08:31;;;;;;;1.60;1.43;;;22.20;44.90;;;;;;5052095;28;20421;-85
2021/05/19 02:11:29;;;;;;;1.40;1.27;;;22.10;44.70;;;;;;5051476;28;20421;-85
2021/05/19 02:13:58;;;;;;;1.60;1.50;;;22.20;44.80;;;;;;5049689;28;20426;-86
2021/05/19 02:16:35;;;;;;;1.40;1.30;;;22.10;44.60;;;;;;5034448;28;21006;-85
2021/05/19 02:19:07;;;;;;;1.77;1.53;;;22.10;44.60;;;;;;5049755;28;20536;-86
2021/05/19 02:21:44;;;;;;;3.20;1.40;;;22.10;44.60;;;;;;5034317;28;20442;-86
2021/05/19 02:24:30;;;;;;;2.40;1.30;;;22.20;44.40;;;;;;5050828;28;20395;-86
2021/05/19 02:27:12;;;;;;;2.23;1.40;;;22.10;44.50;;;;;;5050829;28;20402;-86
2021/05/19 02:30:02;;;;;;;1.40;1.30;;;22.00;44.40;;;;;;5048655;28;20419;-85
2021/05/19 02:32:52;;;;;;;1.20;1.10;;;22.10;44.50;;;;;;5049311;28;20507;-83
2021/05/19 02:35:32;;;;;;;2.47;1.50;;;22.00;44.30;;;;;;5048498;28;20419;-82
2021/05/19 02:38:16;;;;;;;1.40;1.13;;;22.00;44.50;;;;;;5049066;28;20758;-83
2021/05/19 02:40:52;;;;;;;1.60;1.50;;;22.00;44.30;;;;;;5048191;28;20398;-83
2021/05/19 02:43:23;;;;;;;1.97;1.63;;;22.00;44.30;;;;;;5049078;28;20441;-83
2021/05/19 02:46:02;;;;;;;1.60;1.50;;;22.00;44.40;;;;;;5048924;28;20415;-83
2021/05/19 02:48:36;;;;;;;1.40;1.20;;;22.00;44.30;;;;;;5050278;28;20422;-83
2021/05/19 02:51:50;;;;;;;2.03;1.40;;;22.00;44.10;;;;;;5049017;28;20403;-83
2021/05/19 02:54:37;;;;;;;1.50;1.30;;;21.80;43.90;;;;;;5048572;28;20426;-82
2021/05/19 02:57:11;;;;;;;2.00;1.60;;;22.00;44.20;;;;;;5047973;28;20430;-82
2021/05/19 02:59:41;;;;;;;1.70;1.30;;;21.90;44.10;;;;;;5048391;28;20517;-82
2021/05/19 03:02:12;;;;;;;1.27;1.17;;;21.90;43.90;;;;;;5048010;28;20407;-82
2021/05/19 03:04:48;;;;;;;1.60;1.40;;;21.90;43.90;;;;;;5050034;28;20403;-82
2021/05/19 03:07:27;;;;;;;1.50;1.40;;;21.80;43.70;;;;;;5049131;28;20406;-85
2021/05/19 03:09:53;;;;;;;1.60;1.40;;;21.90;43.90;;;;;;5050799;28;20470;-84
2021/05/19 03:12:24;;;;;;;1.63;1.53;;;21.90;44.00;;;;;;5049414;28;20486;-84
2021/05/19 03:14:50;;;;;;;1.30;1.20;;;21.70;43.80;;;;;;5049639;28;20451;-84
2021/05/19 03:17:21;;;;;;;1.70;1.10;;;21.80;44.00;;;;;;5047765;28;20418;-82
2021/05/19 03:19:55;;;;;;;1.30;1.20;;;21.80;43.80;;;;;;5048463;28;20446;-82
2021/05/19 03:22:21;;;;;;;1.60;1.47;;;21.80;43.70;;;;;;5047971;28;20426;-82
2021/05/19 03:24:53;;;;;;;1.30;1.10;;;21.60;43.70;;;;;;5046563;28;20776;-82
2021/05/19 03:27:24;;;;;;;2.63;1.40;;;21.80;44.00;;;;;;5047982;28;20211;-82
2021/05/19 03:30:03;;;;;;;1.60;1.30;;;21.80;44.10;;;;;;5047068;28;20415;-82
2021/05/19 03:32:34;;;;;;;2.27;1.20;;;21.80;44.00;;;;;;5047762;28;20434;-82
2021/05/19 03:35:01;;;;;;;1.40;1.30;;;21.80;43.80;;;;;;5048163;28;20415;-82
2021/05/19 03:37:27;;;;;;;1.50;1.40;;;21.70;43.90;;;;;;5049228;28;20549;-82
2021/05/19 03:40:03;;;;;;;3.37;1.37;;;21.80;44.20;;;;;;5049246;28;20465;-81
2021/05/19 03:45:25;;;;;;;1.43;1.30;;;21.70;43.80;;;;;;5048438;28;20430;-85
2021/05/19 03:47:59;;;;;;;1.50;1.30;;;21.70;43.80;;;;;;5047118;28;20407;-86
2021/05/19 03:50:31;;;;;;;2.17;1.83;;;21.70;43.70;;;;;;5049108;28;20418;-85
2021/05/19 03:53:05;;;;;;;1.57;1.43;;;21.70;43.70;;;;;;5048089;28;20465;-83
2021/05/19 03:55:37;;;;;;;2.23;1.60;;;21.70;43.70;;;;;;5031340;28;20430;-83
2021/05/19 03:58:06;;;;;;;1.67;1.30;;;21.60;43.80;;;;;;5047215;28;20418;-83
2021/05/19 04:00:35;;;;;;;1.60;1.47;;;21.60;43.70;;;;;;5047314;28;20430;-84
2021/05/19 04:03:11;;;;;;;2.93;1.67;;;21.60;43.70;;;;;;5048814;28;20415;-84
2021/05/19 04:06:02;;;;;;;2.33;1.70;;;21.60;43.60;;;;;;5047287;28;20394;-84
2021/05/19 04:08:45;;;;;;;1.60;1.40;;;21.60;43.60;;;;;;5033434;28;20494;-84
2021/05/19 04:14:31;;;;;;;1.93;1.73;;;21.60;43.60;;;;;;5048884;28;20422;-84
2021/05/19 04:16:57;;;;;;;2.13;1.60;;;21.50;43.70;;;;;;5049172;28;20414;-84
2021/05/19 04:19:33;;;;;;;;;;;;;;;;;;;;;
2021/05/19 04:22:09;;;;;;;1.83;1.53;;;21.50;43.80;;;;;;5049017;28;20174;-85
2021/05/19 04:24:42;;;;;;;2.10;1.80;;;21.50;43.50;;;;;;5048807;28;20402;-85
2021/05/19 04:27:33;;;;;;;;;;;;;;;;;;;;;
2021/05/19 04:30:04;;;;;;;5.03;1.97;;;21.50;43.60;;;;;;5048052;28;20437;-84
2021/05/19 04:32:32;;;;;;;1.70;1.60;;;21.50;43.60;;;;;;5031686;28;20431;-84
2021/05/19 04:35:00;;;;;;;1.90;1.70;;;21.40;43.70;;;;;;5048898;28;20562;-84
2021/05/19 04:37:26;;;;;;;2.00;1.63;;;21.40;43.60;;;;;;5048422;28;20414;-84
2021/05/19 04:39:52;;;;;;;2.30;1.80;;;21.50;43.90;;;;;;5046821;28;20462;-83
2021/05/19 04:42:18;;;;;;;1.70;1.40;;;21.50;43.90;;;;;;5047827;28;20187;-85
2021/05/19 04:44:45;;;;;;;1.70;1.30;;;21.50;44.20;;;;;;5047006;28;20920;-84
2021/05/19 04:47:11;;;;;;;1.43;1.33;;;21.60;44.10;;;;;;5047046;28;20426;-85
2021/05/19 04:49:37;;;;;;;2.00;1.50;;;21.60;44.50;;;;;;5047935;28;20449;-84
2021/05/19 04:52:03;;;;;;;1.50;1.10;;;21.60;44.50;;;;;;5040727;28;20453;-85
2021/05/19 04:54:29;;;;;;;1.33;1.13;;;21.70;44.60;;;;;;5035466;28;20657;-85
2021/05/19 04:56:57;;;;;;;1.97;1.30;;;21.70;44.70;;;;;;5066427;28;20432;-85
2021/05/19 04:59:23;;;;;;;1.27;0.90;;;21.80;44.90;;;;;;5050600;28;20191;-84
2021/05/19 05:01:49;;;;;;;1.57;1.10;;;21.70;44.90;;;;;;5051430;28;20424;-84
2021/05/19 05:04:15;;;;;;;1.30;1.00;;;21.80;44.90;;;;;;5050800;28;20199;-84
2021/05/19 05:06:40;;;;;;;1.50;1.20;;;21.90;45.10;;;;;;5050341;28;20175;-84
2021/05/19 05:09:06;;;;;;;4.10;1.20;;;21.90;45.00;;;;;;5050859;28;20262;-84
2021/05/19 05:11:32;;;;;;;2.07;1.60;;;21.90;45.00;;;;;;5051128;28;20183;-84
2021/05/19 05:13:58;;;;;;;3.03;1.27;;;22.00;45.00;;;;;;5072082;28;20198;-85
2021/05/19 05:16:27;;;;;;;1.30;1.17;;;21.90;45.00;;;;;;5054797;28;20209;-85
2021/05/19 05:22:15;;;;;;;2.23;1.20;;;22.10;45.10;;;;;;5071903;28;20400;-85
2021/05/19 05:24:41;;;;;;;1.60;1.00;;;22.00;45.10;;;;;;5072019;28;20410;-85
2021/05/19 05:27:08;;;;;;;1.20;1.00;;;22.10;45.30;;;;;;5059432;28;20434;-84
2021/05/19 05:29:36;;;;;;;1.20;1.03;;;22.10;45.30;;;;;;5050449;28;20415;-84
2021/05/19 05:32:02;;;;;;;1.77;1.17;;;22.10;45.30;;;;;;5053106;28;20414;-84
2021/05/19 05:34:28;;;;;;;1.63;1.40;;;22.20;45.40;;;;;;5050945;28;20434;-83
2021/05/19 05:36:54;;;;;;;1.10;1.00;;;22.10;45.30;;;;;;5048838;28;20429;-83
2021/05/19 05:39:21;;;;;;;1.80;1.00;;;22.10;45.30;;;;;;5049725;28;20187;-82
2021/05/19 05:41:47;;;;;;;1.40;1.00;;;22.10;45.30;;;;;;5048658;28;20501;-82
2021/05/19 05:44:13;;;;;;;1.70;1.30;;;22.20;45.50;;;;;;5047873;28;20415;-82
2021/05/19 05:46:39;;;;;;;1.10;0.70;;;22.30;45.60;;;;;;5047769;28;20486;-82
2021/05/19 05:49:07;;;;;;;1.53;1.13;;;22.30;45.60;;;;;;5049605;28;20621;-82
2021/05/19 05:51:34;;;;;;;1.77;1.23;;;22.30;45.60;;;;;;5050213;28;20711;-82
2021/05/19 05:54:00;;;;;;;1.37;1.00;;;22.30;45.60;;;;;;5049354;28;20450;-85
2021/05/19 05:56:26;;;;;;;2.40;1.53;;;22.30;45.70;;;;;;5050685;28;20505;-86
2021/05/19 05:58:53;;;;;;;1.20;1.00;;;22.40;45.70;;;;;;5050194;28;20451;-85
2021/05/19 06:01:21;;;;;;;1.67;0.90;;;22.40;45.90;;;;;;5034270;28;20446;-84
2021/05/19 06:03:47;;;;;;;3.13;1.40;;;22.40;45.90;;;;;;5052899;28;20572;-85
2021/05/19 06:06:13;;;;;;;1.27;0.93;;;22.40;45.90;;;;;;5050614;28;20423;-86
2021/05/19 06:08:46;;;;;;;1.40;1.20;;;22.40;46.00;;;;;;5051606;28;20219;-85
2021/05/19 06:11:12;;;;;;;3.10;1.10;;;22.40;45.80;;;;;;5051979;28;20414;-84
2021/05/19 06:13:38;;;;;;;4.20;1.60;;;22.40;46.10;;;;;;5051599;28;20425;-84
2021/05/19 06:16:04;;;;;;;1.40;1.00;;;22.50;46.20;;;;;;5052866;28;20222;-84
2021/05/19 06:18:30;;;;;;;3.50;1.10;;;22.50;46.00;;;;;;5051426;28;20418;-84
2021/05/19 06:20:56;;;;;;;1.20;1.00;;;22.60;46.20;;;;;;5052896;28;20445;-83
2021/05/19 06:23:25;;;;;;;2.60;1.00;;;22.60;46.00;;;;;;5053445;28;20410;-85
2021/05/19 06:25:51;;;;;;;2.93;1.23;;;22.70;46.00;;;;;;5051069;28;20436;-84
2021/05/19 06:28:17;;;;;;;1.90;1.20;;;22.70;46.30;;;;;;5052223;28;20401;-85
2021/05/19 06:30:43;;;;;;;1.50;1.20;;;22.70;46.00;;;;;;5051360;28;20544;-85
2021/05/19 06:33:11;;;;;;;2.00;1.13;;;22.80;46.10;;;;;;5052351;28;20418;-84
2021/05/19 06:35:41;;;;;;;2.23;1.10;;;22.80;46.20;;;;;;5052364;28;20414;-84
2021/05/19 06:38:11;;;;;;;1.40;1.00;;;22.80;46.30;;;;;;5052394;28;20437;-83
2021/05/19 06:40:37;;;;;;;3.03;1.20;;;22.80;46.30;;;;;;5053195;28;20431;-84
2021/05/19 06:43:09;;;;;;;1.73;1.20;;;22.80;46.10;;;;;;5052165;28;20823;-85
2021/05/19 06:45:35;;;;;;;1.03;0.80;;;22.90;46.10;;;;;;5036112;28;20423;-84
2021/05/19 06:51:55;;;;;;;1.47;1.00;;;23.00;46.20;;;;;;5052032;28;20401;-81
2021/05/19 06:54:24;;;;;;;1.30;1.03;;;23.00;46.20;;;;;;5051547;28;20430;-82
2021/05/19 06:56:54;;;;;;;4.80;1.10;;;23.00;46.40;;;;;;5034382;28;20522;-82
2021/05/19 06:59:24;;;;;;;1.30;0.90;;;23.00;46.40;;;;;;5050698;28;20561;-82
2021/05/19 07:01:56;;;;;;;1.23;0.80;;;23.20;46.50;;;;;;5049688;28;20426;-82
2021/05/19 07:11:16;;;;;;;1.67;0.90;;;23.10;46.30;;;;;;5030236;28;20402;-82
2021/05/19 07:13:46;;;;;;;2.57;1.07;;;23.10;46.70;;;;;;5029861;28;20505;-82
2021/05/19 07:16:13;;;;;;;1.50;0.80;;;23.10;46.90;;;;;;5013632;28;20484;-82
2021/05/19 07:18:48;;;;;;;1.87;0.80;;;23.10;46.60;;;;;;5013969;28;20455;-82
2021/05/19 07:21:14;;;;;;;1.87;1.00;;;23.20;46.80;;;;;;5012683;28;20411;-82
2021/05/19 07:23:50;;;;;;;1.47;1.13;;;23.20;46.60;;;;;;5028917;28;20411;-81
2021/05/19 07:26:16;;;;;;;3.10;1.03;;;23.20;46.60;;;;;;4997413;28;20472;-82
2021/05/19 07:28:54;;;;;;;1.37;1.00;;;23.20;46.80;;;;;;5031711;28;20415;-83
2021/05/19 07:31:20;;;;;;;1.77;0.97;;;23.20;46.60;;;;;;4983936;28;20242;-83
2021/05/19 07:33:49;;;;;;;1.10;0.90;;;23.20;46.80;;;;;;5013872;28;20479;-84
2021/05/19 07:36:24;;;;;;;1.40;1.10;;;23.20;46.80;;;;;;5015521;28;20442;-83
2021/05/19 07:38:51;;;;;;;4.03;1.00;;;23.30;46.80;;;;;;5047224;28;20444;-84
2021/05/19 07:41:23;;;;;;;1.20;0.90;;;23.30;46.90;;;;;;5053071;28;20440;-84
2021/05/19 07:43:50;;;;;;;2.27;1.00;;;23.30;46.70;;;;;;5050292;28;20407;-84
2021/05/19 07:46:22;;;;;;;1.53;0.80;;;23.30;46.80;;;;;;5051083;28;20439;-84
2021/05/19 07:48:57;;;;;;;1.87;1.20;;;23.30;46.80;;;;;;5052990;28;20437;-84
2021/05/19 07:51:29;;;;;;;1.00;0.90;;;23.30;46.80;;;;;;5053426;28;20401;-84
2021/05/19 07:53:56;;;;;;;4.40;1.20;;;23.40;47.20;;;;;;5052798;28;20472;-84
2021/05/19 08:04:11;;;;;;;1.40;1.07;;;23.40;47.00;;;;;;5052911;28;20386;-84
2021/05/19 08:06:39;;;;;;;1.20;0.80;;;23.40;47.00;;;;;;5051252;28;20422;-84
2021/05/19 08:09:15;;;;;;;2.00;0.80;;;23.40;47.10;;;;;;5052035;28;20496;-83
2021/05/19 08:11:44;;;;;;;1.57;1.00;;;23.40;47.00;;;;;;5051356;28;20504;-84
2021/05/19 08:14:10;;;;;;;1.83;1.00;;;23.40;47.10;;;;;;5034595;28;20434;-84
2021/05/19 08:16:37;;;;;;;1.50;1.17;;;23.40;47.10;;;;;;5051063;28;20486;-84
2021/05/19 08:19:08;;;;;;;3.47;0.90;;;23.40;47.20;;;;;;5052389;28;20457;-85
2021/05/19 08:21:38;;;;;;;1.37;0.80;;;23.40;47.00;;;;;;5051998;28;20441;-83
2021/05/19 08:24:13;;;;;;;6.30;1.30;;;23.40;47.00;;;;;;5051276;28;20414;-85
2021/05/19 08:26:54;;;;;;;1.37;1.07;;;23.50;47.00;;;;;;5052076;28;20412;-83
2021/05/19 08:29:39;;;;;;;1.90;1.07;;;23.50;47.00;;;;;;5052573;28;20411;-84
2021/05/19 08:32:09;;;;;;;2.17;0.80;;;23.50;47.30;;;;;;5052312;28;20394;-84
2021/05/19 08:34:52;;;;;;;1.40;0.90;;;23.50;47.10;;;;;;5051283;28;20418;-84
2021/05/19 08:37:22;;;;;;;1.30;0.90;;;23.50;47.10;;;;;;5051597;28;20464;-84
2021/05/19 08:39:58;;;;;;;1.90;0.90;;;23.50;47.20;;;;;;5052384;28;20959;-84
2021/05/19 08:42:38;;;;;;;1.50;0.83;;;23.50;47.10;;;;;;5051653;28;20430;-83
2021/05/19 08:45:11;;;;;;;2.10;1.00;;;23.50;47.30;;;;;;5052308;28;20471;-84
2021/05/19 08:47:48;;;;;;;1.30;0.70;;;23.50;47.20;;;;;;5036522;28;20446;-83
2021/05/19 08:50:15;;;;;;;2.90;0.90;;;23.60;47.30;;;;;;5055719;28;20474;-84
2021/05/19 08:56:13;;;;;;;1.13;0.90;;;23.60;47.20;;;;;;5035296;28;20442;-83
2021/05/19 08:58:42;;;;;;;3.57;1.20;;;23.50;47.20;;;;;;5034944;28;20457;-83
2021/05/19 09:01:08;;;;;;;1.53;1.00;;;23.60;47.40;;;;;;5003278;28;20530;-83
2021/05/19 09:03:42;;;;;;;2.80;1.30;;;23.60;47.50;;;;;;5017822;28;20423;-83
2021/05/19 09:06:12;;;;;;;1.37;0.73;;;23.60;47.30;;;;;;5033733;28;20442;-82
2021/05/19 09:08:44;;;;;;;2.50;1.13;;;23.60;47.40;;;;;;5034729;28;20415;-84
2021/05/19 09:11:13;;;;;;;1.03;0.93;;;23.60;47.40;;;;;;5017240;28;20509;-85
2021/05/19 09:13:45;;;;;;;1.00;0.70;;;23.60;47.30;;;;;;5033888;28;20474;-85
2021/05/19 09:16:29;;;;;;;1.37;1.10;;;23.60;47.40;;;;;;5017341;28;20431;-85
2021/05/19 09:19:16;;;;;;;1.17;0.90;;;23.60;47.30;;;;;;5020797;28;20451;-85
2021/05/19 09:55:53;;;;;;;1.77;0.90;;;23.60;47.60;;;;;;4972284;28;20515;-86
2021/05/19 09:58:43;;;;;;;0.93;0.77;;;23.60;47.70;;;;;;4972807;28;20453;-86
2021/05/19 10:01:09;;;;;;;1.60;0.70;;;23.60;47.50;;;;;;4972708;29;20418;-86
2021/05/19 10:03:37;;;;;;;1.57;1.47;;;23.60;47.60;;;;;;4956268;29;20410;-86
2021/05/19 10:06:22;;;;;;;1.17;1.07;;;23.60;47.50;;;;;;4971989;29;20505;-86
2021/05/19 10:08:58;;;;;;;1.60;1.03;;;23.60;47.60;;;;;;4956281;29;20414;-86
2021/05/19 10:12:06;;;;;;;1.00;0.70;;;23.60;47.50;;;;;;4960130;28;20486;-86
2021/05/19 10:36:05;;;;;;;9.40;3.63;;;23.50;47.60;;;;;;4876142;29;20496;-87
2021/05/19 10:42:51;;;;;;;8.67;5.10;;;23.60;47.70;;;;;;4877126;29;20411;-85
2021/05/19 10:46:26;;;;;;;10.43;5.43;;;23.60;47.80;;;;;;4877782;29;20422;-84
2021/05/19 10:52:23;;;;;;;18.07;6.90;;;23.50;47.70;;;;;;4870566;29;20438;-86
2021/05/19 11:01:51;;;;;;;15.20;5.80;;;23.60;47.80;;;;;;4907766;29;20427;-85
2021/05/19 11:04:22;;;;;;;11.63;5.47;;;23.60;47.80;;;;;;4915234;28;20413;-84
2021/05/19 11:07:14;;;;;;;9.43;5.63;;;23.50;47.70;;;;;;4992323;28;20398;-85
2021/05/19 11:09:41;;;;;;;12.87;6.10;;;23.60;47.80;;;;;;4992338;28;20425;-85
2021/05/19 11:12:46;;;;;;;10.23;5.80;;;23.50;47.70;;;;;;4992027;28;20428;-85
2021/05/19 11:16:10;;;;;;;;;;;;;;;;;;;;;
2021/05/19 11:19:31;;;;;;;9.50;6.43;;;23.60;47.80;;;;;;4988785;28;20409;-85
2021/05/19 11:22:32;;;;;;;8.00;5.20;;;23.60;47.80;;;;;;4989470;28;20413;-85
2021/05/19 11:28:28;;;;;;;6.97;4.93;;;23.60;47.80;;;;;;4892093;29;20413;-85
2021/05/19 11:31:46;;;;;;;;;;;;;;;;;;;;;
2021/05/19 11:45:19;;;;;;;;;;;;;;;;;;;;;
2021/05/19 11:47:59;;;;;;;8.63;5.20;;;23.50;47.70;;;;;;4836563;29;20488;-85
2021/05/19 11:57:16;;;;;;;8.13;4.73;;;23.50;47.80;;;;;;4838781;29;20436;-85
2021/05/19 11:59:45;;;;;;;7.37;4.27;;;23.40;47.80;;;;;;4839821;29;20484;-82
2021/05/19 12:02:13;;;;;;;7.77;3.93;;;23.40;47.80;;;;;;4847126;29;20438;-80
2021/05/19 12:04:42;;;;;;;5.63;4.00;;;23.40;47.80;;;;;;4854082;29;20536;-80
2021/05/19 12:07:14;;;;;;;5.27;3.27;;;23.50;47.80;;;;;;4857521;29;20431;-80
2021/05/19 12:09:42;;;;;;;11.87;4.60;;;23.50;47.80;;;;;;4858507;29;20427;-80
2021/05/19 12:12:13;;;;;;;7.13;4.67;;;23.50;47.70;;;;;;4878400;29;20432;-81
2021/05/19 12:14:54;;;;;;;7.70;3.93;;;23.50;47.70;;;;;;4880342;29;20460;-83
2021/05/19 12:17:31;;;;;;;7.33;4.63;;;23.50;47.70;;;;;;4888523;29;20495;-81
2021/05/19 12:19:59;;;;;;;6.93;4.07;;;23.50;47.70;;;;;;4919523;29;20459;-79
2021/05/19 12:22:26;;;;;;;4.93;3.57;;;23.50;47.70;;;;;;4934795;29;20416;-82
2021/05/19 12:24:55;;;;;;;4.83;3.37;;;23.50;47.70;;;;;;4935470;29;20411;-82
2021/05/19 12:27:29;;;;;;;5.30;4.07;;;23.50;47.70;;;;;;4935212;29;20420;-81
2021/05/19 12:29:59;;;;;;;8.10;3.97;;;23.60;47.80;;;;;;4946665;28;20421;-83
2021/05/19 12:32:31;;;;;;;6.60;4.40;;;23.60;47.80;;;;;;4991623;28;20413;-81
2021/05/19 12:35:02;;;;;;;6.20;4.17;;;23.60;47.70;;;;;;4990358;28;20416;-82
2021/05/19 12:37:46;;;;;;;5.63;3.20;;;23.60;47.70;;;;;;4991659;28;20505;-83
2021/05/19 12:40:18;;;;;;;4.67;3.53;;;23.60;47.70;;;;;;4990396;28;20496;-83
2021/05/19 12:42:51;;;;;;;5.90;3.63;;;23.60;47.80;;;;;;4991385;28;20413;-81
2021/05/19 12:45:35;;;;;;;5.23;3.30;;;23.60;47.80;;;;;;4990334;28;20417;-80
2021/05/19 12:48:15;;;;;;;4.87;3.40;;;23.60;47.70;;;;;;4992419;28;20406;-81
2021/05/19 12:51:01;;;;;;;4.53;3.13;;;23.60;47.80;;;;;;4994612;28;20397;-82
2021/05/19 12:53:42;;;;;;;6.70;3.40;;;23.60;47.80;;;;;;4993916;28;20396;-82
2021/05/19 12:56:23;;;;;;;3.80;2.83;;;23.60;47.80;;;;;;4993009;28;20405;-80
2021/05/19 12:58:50;;;;;;;5.40;3.60;;;23.60;47.90;;;;;;5012880;28;20522;-80
2021/05/19 13:01:16;;;;;;;4.20;3.60;;;23.60;47.90;;;;;;5016285;28;20419;-81
2021/05/19 13:03:42;;;;;;;5.47;3.50;;;23.60;47.90;;;;;;5016986;28;20415;-82
2021/05/19 13:06:12;;;;;;;7.20;3.63;;;23.60;47.90;;;;;;5030918;28;20475;-81
2021/05/19 13:08:37;;;;;;;7.60;3.43;;;23.60;47.90;;;;;;5014667;28;20176;-83
2021/05/19 13:11:18;;;;;;;5.37;3.60;;;23.60;47.90;;;;;;5031438;28;20414;-83
2021/05/19 13:13:47;;;;;;;4.43;3.20;;;23.60;47.90;;;;;;5015078;28;20415;-83
2021/05/19 13:16:35;;;;;;;5.13;3.37;;;23.60;47.90;;;;;;5014979;28;20415;-82
2021/05/19 13:24:10;;;;;;;4.30;3.43;;;23.70;48.00;;;;;;5032982;28;20485;-82
2021/05/19 13:26:54;;;;;;;6.93;3.23;;;23.60;47.90;;;;;;5013193;28;20407;-81
2021/05/19 13:29:21;;;;;;;3.63;3.07;;;23.60;47.90;;;;;;5030609;28;20477;-81
2021/05/19 13:37:09;;;;;;;4.83;3.07;;;23.60;48.00;;;;;;5034780;28;20411;-81
2021/05/19 13:39:35;;;;;;;3.97;2.60;;;23.60;48.00;;;;;;5034338;28;20446;-80
2021/05/19 13:42:03;;;;;;;6.50;3.47;;;23.60;48.00;;;;;;5035375;28;20247;-81
2021/05/19 13:44:29;;;;;;;4.90;3.60;;;23.60;48.00;;;;;;5017507;28;20424;-80
2021/05/19 13:46:59;;;;;;;4.30;2.80;;;23.60;48.00;;;;;;5035266;28;20411;-81
2021/05/19 13:49:33;;;;;;;3.73;3.07;;;23.60;48.00;;;;;;5015909;28;20430;-82
2021/05/19 13:52:39;;;;;;;5.03;3.60;;;23.70;48.10;;;;;;5015988;28;20465;-82
2021/05/19 13:55:06;;;;;;;3.87;3.13;;;23.70;48.10;;;;;;4986541;28;20454;-81
2021/05/19 13:57:32;;;;;;;4.60;3.00;;;23.60;48.00;;;;;;5015681;28;20423;-81
2021/05/19 14:00:01;;;;;;;4.90;2.90;;;23.60;48.00;;;;;;5015723;28;20995;-81
2021/05/19 14:02:29;;;;;;;3.30;2.67;;;23.60;47.90;;;;;;5015001;28;20415;-81
2021/05/19 14:04:58;;;;;;;4.33;2.97;;;23.60;48.00;;;;;;5033063;28;20415;-82
2021/05/19 14:07:24;;;;;;;3.93;2.63;;;23.60;47.90;;;;;;5014009;28;20481;-82
2021/05/19 14:09:56;;;;;;;3.13;2.70;;;23.60;48.00;;;;;;5017195;28;20419;-82
2021/05/19 14:15:00;;;;;;;3.40;2.00;;;23.60;47.90;;;;;;5033399;28;20404;-85
2021/05/19 14:28:26;;;;;;;2.70;2.23;;;23.60;47.90;;;;;;5035565;28;20430;-87
2021/05/19 14:30:52;;;;;;;5.67;2.43;;;23.50;47.90;;;;;;5017639;28;20422;-88
2021/05/19 14:33:21;;;;;;;3.80;2.80;;;23.50;47.90;;;;;;5033811;28;20426;-83
2021/05/19 15:00:30;;;;;;;2.73;2.03;;;23.50;47.80;;;;;;5033843;28;20543;-83
2021/05/19 15:02:56;;;;;;;2.83;1.90;;;23.50;47.70;;;;;;5016854;28;20404;-84
2021/05/19 15:05:26;;;;;;;2.40;2.10;;;23.50;47.70;;;;;;5017049;28;20423;-84
2021/05/19 15:11:30;;;;;;;2.03;1.83;;;23.50;47.60;;;;;;4973587;28;21044;-83
2021/05/19 15:14:03;;;;;;;3.97;2.07;;;23.30;47.50;;;;;;4957677;29;20424;-84
2021/05/19 15:16:33;;;;;;;2.00;1.80;;;23.40;47.50;;;;;;4957511;29;20402;-84
2021/05/19 15:19:01;;;;;;;2.33;2.00;;;23.40;47.50;;;;;;4973465;29;20545;-84
2021/05/19 15:21:50;;;;;;;2.57;2.37;;;23.40;48.00;;;;;;4972065;29;20429;-85
2021/05/19 15:24:18;;;;;;;1.83;1.37;;;23.40;47.40;;;;;;5011249;28;20401;-85
2021/05/19 15:26:51;;;;;;;1.77;1.60;;;23.40;47.50;;;;;;4994952;28;20459;-84
2021/05/19 15:29:20;;;;;;;1.80;1.60;;;23.40;47.50;;;;;;4995071;28;20424;-83
2021/05/19 15:31:46;;;;;;;1.40;1.30;;;23.40;47.60;;;;;;5011287;28;20428;-83
2021/05/19 15:34:15;;;;;;;1.60;1.43;;;23.40;48.20;;;;;;4995766;28;20432;-83
2021/05/19 15:36:46;;;;;;;3.67;1.90;;;23.40;47.60;;;;;;4994234;28;20192;-86
2021/05/19 15:39:16;;;;;;;2.73;1.93;;;23.40;47.50;;;;;;5009082;28;20499;-86
2021/05/19 15:41:47;;;;;;;3.07;2.30;;;23.40;47.50;;;;;;4999922;28;20424;-84
2021/05/19 15:44:15;;;;;;;3.70;1.90;;;23.40;47.50;;;;;;4978633;28;20427;-82
2021/05/19 15:50:04;;;;;;;1.83;1.63;;;23.40;47.40;;;;;;5010561;28;20427;-83
2021/05/19 15:52:32;;;;;;;2.20;1.43;;;23.40;47.50;;;;;;5011965;28;20443;-83
2021/05/19 16:01:41;;;;;;;3.20;1.60;;;23.40;47.40;;;;;;4970113;29;20449;-82
2021/05/19 16:04:24;;;;;;;2.23;1.53;;;23.40;47.50;;;;;;4971246;29;20935;-81
2021/05/19 16:07:15;;;;;;;2.00;1.77;;;23.40;47.50;;;;;;4954002;29;20418;-81
2021/05/19 16:09:43;;;;;;;1.70;1.43;;;23.40;47.50;;;;;;4953664;29;20417;-81
2021/05/19 16:12:14;;;;;;;2.13;1.50;;;23.40;47.50;;;;;;4953901;29;20414;-82
2021/05/19 16:14:40;;;;;;;2.40;1.50;;;23.50;47.50;;;;;;4970225;29;21042;-83
2021/05/19 16:17:11;;;;;;;2.13;1.80;;;23.40;47.50;;;;;;4964638;28;20420;-83
2021/05/19 16:19:41;;;;;;;2.87;1.50;;;23.40;47.40;;;;;;4976293;28;20205;-83
2021/05/19 16:22:18;;;;;;;1.70;1.60;;;23.40;47.40;;;;;;4992647;28;20412;-82
2021/05/19 16:24:49;;;;;;;2.03;1.20;;;23.50;47.50;;;;;;4977529;28;20455;-83
2021/05/19 16:27:20;;;;;;;1.40;1.30;;;23.40;47.40;;;;;;5009854;28;20408;-82
2021/05/19 16:36:46;;;;;;;1.73;1.30;;;23.50;47.50;;;;;;4970750;29;20390;-81
2021/05/19 16:39:20;;;;;;;2.70;1.70;;;23.40;47.50;;;;;;4956141;29;20468;-82
2021/05/19 16:41:47;;;;;;;1.50;1.40;;;23.40;47.50;;;;;;4970129;29;20398;-82
2021/05/19 16:44:14;;;;;;;2.00;1.33;;;23.40;47.50;;;;;;4969961;29;20856;-82
2021/05/19 16:46:45;;;;;;;1.60;1.30;;;23.40;47.50;;;;;;4972031;28;20488;-82
2021/05/19 16:49:16;;;;;;;2.23;1.40;;;23.50;47.60;;;;;;4989465;28;20432;-82
2021/05/19 16:51:49;;;;;;;1.83;1.37;;;23.50;47.60;;;;;;4988686;28;20420;-82
2021/05/19 16:54:19;;;;;;;1.60;1.40;;;23.50;47.60;;;;;;4989475;28;20428;-86
2021/05/19 17:06:20;;;;;;;1.60;1.50;;;23.40;47.60;;;;;;4931453;29;20407;-86
2021/05/19 17:08:45;;;;;;;1.60;1.37;;;23.40;47.60;;;;;;4916321;29;20499;-86
2021/05/19 17:11:12;;;;;;;1.80;1.50;;;23.40;47.60;;;;;;4952762;29;20182;-85